sensor_id;sensor_type;location;lat;lon;timestamp;pressure;altitude;pressure_sealevel;temperature;humidity
70009;BME280;59542;37.950;-122.338;2023-04-04T00:00:40;101753.91;;;12.48;43.13
70009;BME280;59542;37.950;-122.338;2023-04-04T00:03:07;101751.56;;;12.66;42.92
70009;BME280;59542;37.950;-122.338;2023-04-04T00:05:33;101744.84;;;12.83;41.69
70009;BME280;59542;37.950;-122.338;2023-04-04T00:08:01;101753.03;;;12.75;41.75
70009;BME280;59542;37.950;-122.338;2023-04-04T00:10:27;101754.63;;;12.63;43.73
70009;BME280;59542;37.950;-122.338;2023-04-04T00:12:54;101756.25;;;12.57;43.15
70009;BME280;59542;37.950;-122.338;2023-04-04T00:15:20;101752.38;;;12.66;42.65
70009;BME280;59542;37.950;-122.338;2023-04-04T00:17:46;101748.13;;;12.79;42.91
70009;BME280;59542;37.950;-122.338;2023-04-04T00:20:13;101760.38;;;12.60;41.22
70009;BME280;59542;37.950;-122.338;2023-04-04T00:22:39;101773.47;;;12.41;41.95
70009;BME280;59542;37.950;-122.338;2023-04-04T00:25:06;101760.59;;;12.30;42.60
70009;BME280;59542;37.950;-122.338;2023-04-04T00:27:33;101754.56;;;12.22;43.69
70009;BME280;59542;37.950;-122.338;2023-04-04T00:29:59;101759.66;;;12.17;43.12
70009;BME280;59542;37.950;-122.338;2023-04-04T00:32:25;101759.66;;;12.17;42.92
70009;BME280;59542;37.950;-122.338;2023-04-04T00:34:52;101765.63;;;11.91;42.81
70009;BME280;59542;37.950;-122.338;2023-04-04T00:37:19;101752.97;;;12.06;43.20
70009;BME280;59542;37.950;-122.338;2023-04-04T00:39:46;101760.38;;;12.04;43.92
70009;BME280;59542;37.950;-122.338;2023-04-04T00:42:12;101750.94;;;11.86;43.85
70009;BME280;59542;37.950;-122.338;2023-04-04T00:44:38;101754.34;;;11.80;44.79
70009;BME280;59542;37.950;-122.338;2023-04-04T00:47:05;101765.22;;;11.72;44.83
70009;BME280;59542;37.950;-122.338;2023-04-04T00:49:32;101760.78;;;11.64;45.00
70009;BME280;59542;37.950;-122.338;2023-04-04T00:51:59;101755.81;;;11.61;46.21
70009;BME280;59542;37.950;-122.338;2023-04-04T00:54:25;101774.41;;;11.63;46.09
70009;BME280;59542;37.950;-122.338;2023-04-04T00:56:51;101767.13;;;11.57;46.60
70009;BME280;59542;37.950;-122.338;2023-04-04T00:59:24;101780.72;;;11.55;46.50
70009;BME280;59542;37.950;-122.338;2023-04-04T01:01:52;101771.94;;;11.47;47.84
70009;BME280;59542;37.950;-122.338;2023-04-04T01:04:19;101776.34;;;11.33;47.52
70009;BME280;59542;37.950;-122.338;2023-04-04T01:06:45;101776.22;;;11.26;48.83
70009;BME280;59542;37.950;-122.338;2023-04-04T01:09:12;101775.31;;;11.19;48.50
70009;BME280;59542;37.950;-122.338;2023-04-04T01:11:38;101780.41;;;11.14;49.05
70009;BME280;59542;37.950;-122.338;2023-04-04T01:14:04;101789.84;;;11.10;48.53
70009;BME280;59542;37.950;-122.338;2023-04-04T01:16:33;101782.72;;;10.88;49.18
70009;BME280;59542;37.950;-122.338;2023-04-04T01:19:01;101786.25;;;10.88;49.36
70009;BME280;59542;37.950;-122.338;2023-04-04T01:21:29;101785.13;;;10.82;49.14
70009;BME280;59542;37.950;-122.338;2023-04-04T01:24:00;101777.47;;;10.79;49.29
70009;BME280;59542;37.950;-122.338;2023-04-04T01:26:28;101776.66;;;10.79;48.58
70009;BME280;59542;37.950;-122.338;2023-04-04T01:28:58;101774.16;;;10.77;48.42
70009;BME280;59542;37.950;-122.338;2023-04-04T01:31:38;101774.25;;;10.84;48.67
70009;BME280;59542;37.950;-122.338;2023-04-04T01:39:35;101769.28;;;10.66;49.12
70009;BME280;59542;37.950;-122.338;2023-04-04T01:42:05;101776.28;;;10.67;49.83
70009;BME280;59542;37.950;-122.338;2023-04-04T01:44:32;101778.00;;;10.60;50.43
70009;BME280;59542;37.950;-122.338;2023-04-04T01:46:58;101774.06;;;10.56;51.07
70009;BME280;59542;37.950;-122.338;2023-04-04T01:49:25;101778.09;;;10.52;51.17
70009;BME280;59542;37.950;-122.338;2023-04-04T01:51:51;101782.25;;;10.54;50.97
70009;BME280;59542;37.950;-122.338;2023-04-04T01:54:19;101782.88;;;10.42;51.37
70009;BME280;59542;37.950;-122.338;2023-04-04T01:56:47;101790.81;;;10.35;51.33
70009;BME280;59542;37.950;-122.338;2023-04-04T01:59:13;101798.44;;;10.23;52.42
70009;BME280;59542;37.950;-122.338;2023-04-04T02:01:39;101801.13;;;10.23;52.46
70009;BME280;59542;37.950;-122.338;2023-04-04T02:04:05;101805.03;;;10.13;52.23
70009;BME280;59542;37.950;-122.338;2023-04-04T02:06:33;101824.28;;;10.08;52.35
70009;BME280;59542;37.950;-122.338;2023-04-04T02:08:59;101806.75;;;10.05;53.10
70009;BME280;59542;37.950;-122.338;2023-04-04T02:11:25;101816.47;;;9.98;54.41
70009;BME280;59542;37.950;-122.338;2023-04-04T02:13:52;101822.50;;;9.77;55.09
70009;BME280;59542;37.950;-122.338;2023-04-04T02:16:18;101814.69;;;9.68;55.74
70009;BME280;59542;37.950;-122.338;2023-04-04T02:18:45;101810.75;;;9.56;55.93
70009;BME280;59542;37.950;-122.338;2023-04-04T02:21:11;101816.41;;;9.61;55.83
70009;BME280;59542;37.950;-122.338;2023-04-04T02:23:37;101817.06;;;9.63;55.80
70009;BME280;59542;37.950;-122.338;2023-04-04T02:26:04;101813.44;;;9.56;55.71
70009;BME280;59542;37.950;-122.338;2023-04-04T02:28:30;101819.28;;;9.51;55.71
70009;BME280;59542;37.950;-122.338;2023-04-04T02:31:00;101819.13;;;9.52;55.25
70009;BME280;59542;37.950;-122.338;2023-04-04T02:33:30;101824.97;;;9.48;56.05
70009;BME280;59542;37.950;-122.338;2023-04-04T02:35:57;101820.41;;;9.25;56.58
70009;BME280;59542;37.950;-122.338;2023-04-04T02:38:24;101830.13;;;9.18;56.19
70009;BME280;59542;37.950;-122.338;2023-04-04T02:40:51;101825.59;;;9.19;56.08
70009;BME280;59542;37.950;-122.338;2023-04-04T02:43:17;101820.00;;;9.06;56.69
70009;BME280;59542;37.950;-122.338;2023-04-04T02:45:47;101835.84;;;9.07;57.10
70009;BME280;59542;37.950;-122.338;2023-04-04T02:48:13;101827.47;;;9.10;56.72
70009;BME280;59542;37.950;-122.338;2023-04-04T02:50:40;101828.66;;;9.08;56.85
70009;BME280;59542;37.950;-122.338;2023-04-04T02:53:06;101842.31;;;9.13;56.89
70009;BME280;59542;37.950;-122.338;2023-04-04T02:55:33;101847.84;;;9.11;56.62
70009;BME280;59542;37.950;-122.338;2023-04-04T02:57:59;101848.00;;;9.10;56.63
70009;BME280;59542;37.950;-122.338;2023-04-04T03:00:26;101861.56;;;9.00;56.60
70009;BME280;59542;37.950;-122.338;2023-04-04T03:02:56;101857.56;;;8.96;56.45
70009;BME280;59542;37.950;-122.338;2023-04-04T03:05:23;101859.22;;;8.97;56.00
70009;BME280;59542;37.950;-122.338;2023-04-04T03:07:53;101857.75;;;8.94;56.11
70009;BME280;59542;37.950;-122.338;2023-04-04T03:10:24;101858.44;;;8.88;56.16
70009;BME280;59542;37.950;-122.338;2023-04-04T03:12:51;101866.25;;;8.90;55.73
70009;BME280;59542;37.950;-122.338;2023-04-04T03:15:18;101877.44;;;8.85;56.08
70009;BME280;59542;37.950;-122.338;2023-04-04T03:17:44;101873.47;;;8.73;55.25
70009;BME280;59542;37.950;-122.338;2023-04-04T03:20:14;101875.78;;;8.84;55.85
70009;BME280;59542;37.950;-122.338;2023-04-04T03:22:41;101878.28;;;8.86;55.35
70009;BME280;59542;37.950;-122.338;2023-04-04T03:25:08;101878.44;;;8.76;55.80
70009;BME280;59542;37.950;-122.338;2023-04-04T03:27:34;101886.31;;;8.61;56.64
70009;BME280;59542;37.950;-122.338;2023-04-04T03:30:01;101893.78;;;8.66;56.14
70009;BME280;59542;37.950;-122.338;2023-04-04T03:32:27;101888.97;;;8.69;55.71
70009;BME280;59542;37.950;-122.338;2023-04-04T03:34:53;101892.63;;;8.68;55.12
70009;BME280;59542;37.950;-122.338;2023-04-04T03:37:20;101903.81;;;8.56;55.66
70009;BME280;59542;37.950;-122.338;2023-04-04T03:39:47;101902.97;;;8.71;55.49
70009;BME280;59542;37.950;-122.338;2023-04-04T03:42:13;101901.50;;;8.61;55.96
70009;BME280;59542;37.950;-122.338;2023-04-04T03:44:41;101911.97;;;8.70;55.55
70009;BME280;59542;37.950;-122.338;2023-04-04T03:47:07;101915.47;;;8.71;56.26
70009;BME280;59542;37.950;-122.338;2023-04-04T03:49:34;101917.66;;;8.59;56.12
70009;BME280;59542;37.950;-122.338;2023-04-04T03:52:00;101928.66;;;8.64;55.66
70009;BME280;59542;37.950;-122.338;2023-04-04T03:54:29;101932.66;;;8.60;55.36
70009;BME280;59542;37.950;-122.338;2023-04-04T03:56:56;101931.66;;;8.69;55.73
70009;BME280;59542;37.950;-122.338;2023-04-04T03:59:22;101938.34;;;8.90;54.88
70009;BME280;59542;37.950;-122.338;2023-04-04T04:01:48;101930.50;;;8.64;56.39
70009;BME280;59542;37.950;-122.338;2023-04-04T04:04:15;101936.69;;;8.72;55.89
70009;BME280;59542;37.950;-122.338;2023-04-04T04:06:41;101933.34;;;8.62;56.77
70009;BME280;59542;37.950;-122.338;2023-04-04T04:09:08;101943.19;;;8.70;56.71
70009;BME280;59542;37.950;-122.338;2023-04-04T04:11:36;101957.03;;;8.57;55.94
70009;BME280;59542;37.950;-122.338;2023-04-04T04:14:03;101945.03;;;8.61;56.80
70009;BME280;59542;37.950;-122.338;2023-04-04T04:16:29;101951.50;;;8.42;56.59
70009;BME280;59542;37.950;-122.338;2023-04-04T04:18:56;101955.00;;;8.43;56.79
70009;BME280;59542;37.950;-122.338;2023-04-04T04:21:22;101955.34;;;8.48;55.68
70009;BME280;59542;37.950;-122.338;2023-04-04T04:23:50;101964.69;;;8.44;56.26
70009;BME280;59542;37.950;-122.338;2023-04-04T04:26:17;101968.84;;;8.46;56.09
70009;BME280;59542;37.950;-122.338;2023-04-04T04:28:43;101973.34;;;8.46;55.90
70009;BME280;59542;37.950;-122.338;2023-04-04T04:31:10;101975.34;;;8.36;55.67
70009;BME280;59542;37.950;-122.338;2023-04-04T04:33:37;101975.69;;;8.41;56.10
70009;BME280;59542;37.950;-122.338;2023-04-04T04:36:04;101970.13;;;8.34;55.67
70009;BME280;59542;37.950;-122.338;2023-04-04T04:38:32;101976.56;;;8.15;56.22
70009;BME280;59542;37.950;-122.338;2023-04-04T04:40:59;101972.94;;;8.25;55.84
70009;BME280;59542;37.950;-122.338;2023-04-04T04:43:26;101974.44;;;8.27;55.24
70009;BME280;59542;37.950;-122.338;2023-04-04T04:45:52;101975.78;;;8.23;55.62
70009;BME280;59542;37.950;-122.338;2023-04-04T04:48:19;101973.25;;;8.21;55.74
70009;BME280;59542;37.950;-122.338;2023-04-04T04:50:45;101968.44;;;8.17;56.10
70009;BME280;59542;37.950;-122.338;2023-04-04T04:53:13;101978.09;;;8.26;55.49
70009;BME280;59542;37.950;-122.338;2023-04-04T04:55:39;101980.06;;;8.08;55.81
70009;BME280;59542;37.950;-122.338;2023-04-04T04:58:08;101980.91;;;8.08;56.36
70009;BME280;59542;37.950;-122.338;2023-04-04T05:00:36;101986.94;;;8.18;55.27
70009;BME280;59542;37.950;-122.338;2023-04-04T05:03:03;101978.09;;;8.18;55.50
70009;BME280;59542;37.950;-122.338;2023-04-04T05:05:36;101993.84;;;7.95;56.10
70009;BME280;59542;37.950;-122.338;2023-04-04T05:08:03;101989.72;;;8.01;56.26
70009;BME280;59542;37.950;-122.338;2023-04-04T05:10:30;101994.69;;;7.96;56.43
70009;BME280;59542;37.950;-122.338;2023-04-04T05:12:56;102002.88;;;8.10;55.90
70009;BME280;59542;37.950;-122.338;2023-04-04T05:15:23;101994.16;;;7.84;56.75
70009;BME280;59542;37.950;-122.338;2023-04-04T05:17:55;102000.84;;;7.96;56.85
70009;BME280;59542;37.950;-122.338;2023-04-04T05:20:22;101996.72;;;8.02;56.24
70009;BME280;59542;37.950;-122.338;2023-04-04T05:22:49;101997.81;;;7.91;56.40
70009;BME280;59542;37.950;-122.338;2023-04-04T05:25:15;101994.22;;;8.00;56.54
70009;BME280;59542;37.950;-122.338;2023-04-04T05:27:41;101992.47;;;7.83;56.78
70009;BME280;59542;37.950;-122.338;2023-04-04T05:30:12;101998.75;;;7.74;57.59
70009;BME280;59542;37.950;-122.338;2023-04-04T05:32:38;102000.47;;;7.83;57.07
70009;BME280;59542;37.950;-122.338;2023-04-04T05:35:05;101998.94;;;7.80;56.91
70009;BME280;59542;37.950;-122.338;2023-04-04T05:37:31;101998.75;;;7.74;57.17
70009;BME280;59542;37.950;-122.338;2023-04-04T05:39:58;101995.91;;;7.75;57.34
70009;BME280;59542;37.950;-122.338;2023-04-04T05:42:24;101998.41;;;7.77;57.39
70009;BME280;59542;37.950;-122.338;2023-04-04T05:44:50;102001.13;;;7.85;57.18
70009;BME280;59542;37.950;-122.338;2023-04-04T05:47:17;101995.09;;;7.75;57.16
70009;BME280;59542;37.950;-122.338;2023-04-04T05:49:43;101995.66;;;7.60;57.88
70009;BME280;59542;37.950;-122.338;2023-04-04T05:52:09;101999.88;;;7.71;57.91
70009;BME280;59542;37.950;-122.338;2023-04-04T05:54:36;101998.84;;;7.64;58.13
70009;BME280;59542;37.950;-122.338;2023-04-04T05:57:02;101998.28;;;7.52;57.83
70009;BME280;59542;37.950;-122.338;2023-04-04T05:59:28;102000.16;;;7.60;56.70
70009;BME280;59542;37.950;-122.338;2023-04-04T06:01:55;102005.56;;;7.68;57.16
70009;BME280;59542;37.950;-122.338;2023-04-04T06:04:21;102019.81;;;7.59;57.60
70009;BME280;59542;37.950;-122.338;2023-04-04T06:06:47;102009.31;;;7.57;58.00
70009;BME280;59542;37.950;-122.338;2023-04-04T06:09:13;102015.28;;;7.51;56.66
70009;BME280;59542;37.950;-122.338;2023-04-04T06:11:40;102007.50;;;7.58;56.99
70009;BME280;59542;37.950;-122.338;2023-04-04T06:14:06;102020.41;;;7.45;56.92
70009;BME280;59542;37.950;-122.338;2023-04-04T06:16:34;102013.63;;;7.50;57.07
70009;BME280;59542;37.950;-122.338;2023-04-04T06:19:00;102009.22;;;7.41;57.32
70009;BME280;59542;37.950;-122.338;2023-04-04T06:21:27;102017.03;;;7.43;57.15
70009;BME280;59542;37.950;-122.338;2023-04-04T06:23:54;102014.53;;;7.41;57.49
70009;BME280;59542;37.950;-122.338;2023-04-04T06:26:20;102005.66;;;7.32;58.24
70009;BME280;59542;37.950;-122.338;2023-04-04T06:28:48;102013.91;;;7.47;57.64
70009;BME280;59542;37.950;-122.338;2023-04-04T06:31:15;102008.84;;;7.36;57.25
70009;BME280;59542;37.950;-122.338;2023-04-04T06:33:41;102010.06;;;7.41;57.60
70009;BME280;59542;37.950;-122.338;2023-04-04T06:36:08;102017.56;;;7.46;57.19
70009;BME280;59542;37.950;-122.338;2023-04-04T06:38:34;102013.19;;;7.37;57.74
70009;BME280;59542;37.950;-122.338;2023-04-04T06:41:01;102014.06;;;7.46;57.75
70009;BME280;59542;37.950;-122.338;2023-04-04T06:43:27;102011.84;;;7.33;58.06
70009;BME280;59542;37.950;-122.338;2023-04-04T06:45:54;102015.59;;;7.48;57.48
70009;BME280;59542;37.950;-122.338;2023-04-04T06:48:20;102018.56;;;7.45;57.30
70009;BME280;59542;37.950;-122.338;2023-04-04T06:50:46;102024.28;;;7.32;57.66
70009;BME280;59542;37.950;-122.338;2023-04-04T06:53:13;102033.81;;;7.35;56.95
70009;BME280;59542;37.950;-122.338;2023-04-04T06:55:39;102032.06;;;7.26;56.96
70009;BME280;59542;37.950;-122.338;2023-04-04T06:58:05;102038.66;;;7.13;57.78
70009;BME280;59542;37.950;-122.338;2023-04-04T07:00:32;102036.72;;;7.24;57.70
70009;BME280;59542;37.950;-122.338;2023-04-04T07:03:01;102043.06;;;7.23;57.97
70009;BME280;59542;37.950;-122.338;2023-04-04T07:05:27;102047.28;;;7.15;58.61
70009;BME280;59542;37.950;-122.338;2023-04-04T07:07:54;102044.75;;;7.32;57.63
70009;BME280;59542;37.950;-122.338;2023-04-04T07:10:25;102045.63;;;7.14;57.81
70009;BME280;59542;37.950;-122.338;2023-04-04T07:12:51;102047.00;;;7.19;58.44
70009;BME280;59542;37.950;-122.338;2023-04-04T07:15:18;102041.50;;;7.20;58.42
70009;BME280;59542;37.950;-122.338;2023-04-04T07:17:44;102040.59;;;7.29;57.78
70009;BME280;59542;37.950;-122.338;2023-04-04T07:20:10;102044.88;;;7.04;58.74
70009;BME280;59542;37.950;-122.338;2023-04-04T07:22:38;102036.91;;;7.22;58.91
70009;BME280;59542;37.950;-122.338;2023-04-04T07:25:05;102039.38;;;7.24;58.58
70009;BME280;59542;37.950;-122.338;2023-04-04T07:27:31;102035.59;;;7.08;58.55
70009;BME280;59542;37.950;-122.338;2023-04-04T07:29:57;102041.25;;;7.05;58.73
70009;BME280;59542;37.950;-122.338;2023-04-04T07:32:24;102039.56;;;7.22;58.03
70009;BME280;59542;37.950;-122.338;2023-04-04T07:34:50;102041.47;;;7.12;57.95
70009;BME280;59542;37.950;-122.338;2023-04-04T07:37:17;102039.19;;;7.17;58.02
70009;BME280;59542;37.950;-122.338;2023-04-04T07:39:43;102048.25;;;7.06;58.69
70009;BME280;59542;37.950;-122.338;2023-04-04T07:42:10;102049.06;;;7.07;58.33
70009;BME280;59542;37.950;-122.338;2023-04-04T07:44:36;102055.16;;;7.17;57.84
70009;BME280;59542;37.950;-122.338;2023-04-04T07:47:03;102054.63;;;7.13;57.54
70009;BME280;59542;37.950;-122.338;2023-04-04T07:49:29;102046.78;;;7.12;57.43
70009;BME280;59542;37.950;-122.338;2023-04-04T07:51:55;102051.56;;;7.08;57.30
70009;BME280;59542;37.950;-122.338;2023-04-04T07:54:21;102052.47;;;6.99;57.17
70009;BME280;59542;37.950;-122.338;2023-04-04T07:56:50;102053.94;;;6.94;57.20
70009;BME280;59542;37.950;-122.338;2023-04-04T07:59:16;102052.13;;;6.94;58.08
70009;BME280;59542;37.950;-122.338;2023-04-04T08:01:42;102050.75;;;6.90;58.61
70009;BME280;59542;37.950;-122.338;2023-04-04T08:04:09;102052.66;;;6.98;58.90
70009;BME280;59542;37.950;-122.338;2023-04-04T08:06:35;102052.59;;;6.90;59.29
70009;BME280;59542;37.950;-122.338;2023-04-04T08:09:02;102051.66;;;6.99;59.15
70009;BME280;59542;37.950;-122.338;2023-04-04T08:11:29;102047.16;;;6.99;59.27
70009;BME280;59542;37.950;-122.338;2023-04-04T08:13:55;102041.78;;;6.91;59.22
70009;BME280;59542;37.950;-122.338;2023-04-04T08:16:22;102049.91;;;6.90;58.93
70009;BME280;59542;37.950;-122.338;2023-04-04T08:18:48;102049.22;;;6.87;59.20
70009;BME280;59542;37.950;-122.338;2023-04-04T08:21:14;102044.72;;;6.88;58.90
70009;BME280;59542;37.950;-122.338;2023-04-04T08:23:40;102048.44;;;6.77;59.69
70009;BME280;59542;37.950;-122.338;2023-04-04T08:26:07;102051.03;;;6.87;59.44
70009;BME280;59542;37.950;-122.338;2023-04-04T08:28:33;102047.63;;;6.77;60.29
70009;BME280;59542;37.950;-122.338;2023-04-04T08:31:00;102043.00;;;6.79;59.17
70009;BME280;59542;37.950;-122.338;2023-04-04T08:33:26;102055.53;;;6.69;60.04
70009;BME280;59542;37.950;-122.338;2023-04-04T08:35:52;102049.38;;;6.68;60.07
70009;BME280;59542;37.950;-122.338;2023-04-04T08:38:19;102049.97;;;6.62;60.27
70009;BME280;59542;37.950;-122.338;2023-04-04T08:40:48;102052.81;;;6.78;59.72
70009;BME280;59542;37.950;-122.338;2023-04-04T08:43:15;102046.94;;;6.75;59.81
70009;BME280;59542;37.950;-122.338;2023-04-04T08:45:44;102056.16;;;6.80;59.71
70009;BME280;59542;37.950;-122.338;2023-04-04T08:48:13;102059.56;;;6.73;59.67
70009;BME280;59542;37.950;-122.338;2023-04-04T08:50:41;102053.78;;;6.77;59.24
70009;BME280;59542;37.950;-122.338;2023-04-04T08:53:10;102053.16;;;6.66;59.83
70009;BME280;59542;37.950;-122.338;2023-04-04T08:55:37;102058.88;;;6.71;59.83
70009;BME280;59542;37.950;-122.338;2023-04-04T08:58:04;102056.81;;;6.65;60.08
70009;BME280;59542;37.950;-122.338;2023-04-04T09:00:31;102069.50;;;6.71;59.43
70009;BME280;59542;37.950;-122.338;2023-04-04T09:03:29;102067.63;;;6.63;59.44
70009;BME280;59542;37.950;-122.338;2023-04-04T09:05:58;102061.97;;;6.66;59.43
70009;BME280;59542;37.950;-122.338;2023-04-04T09:08:24;102059.31;;;6.66;59.57
70009;BME280;59542;37.950;-122.338;2023-04-04T09:10:52;102062.69;;;6.68;59.40
70009;BME280;59542;37.950;-122.338;2023-04-04T09:13:19;102063.56;;;6.59;59.38
70009;BME280;59542;37.950;-122.338;2023-04-04T09:15:52;102064.56;;;6.58;59.60
70009;BME280;59542;37.950;-122.338;2023-04-04T09:18:19;102068.84;;;6.69;59.25
70009;BME280;59542;37.950;-122.338;2023-04-04T09:20:47;102067.16;;;6.68;58.90
70009;BME280;59542;37.950;-122.338;2023-04-04T09:23:15;102059.16;;;6.50;59.03
70009;BME280;59542;37.950;-122.338;2023-04-04T09:25:47;102061.06;;;6.57;58.97
70009;BME280;59542;37.950;-122.338;2023-04-04T09:28:15;102055.44;;;6.60;59.19
70009;BME280;59542;37.950;-122.338;2023-04-04T09:30:42;102056.88;;;6.55;59.65
70009;BME280;59542;37.950;-122.338;2023-04-04T09:33:11;102058.63;;;6.46;59.23
70009;BME280;59542;37.950;-122.338;2023-04-04T09:35:39;102062.44;;;6.61;59.03
70009;BME280;59542;37.950;-122.338;2023-04-04T09:38:09;102059.69;;;6.53;58.69
70009;BME280;59542;37.950;-122.338;2023-04-04T09:40:35;102063.19;;;6.54;58.75
70009;BME280;59542;37.950;-122.338;2023-04-04T09:43:05;102069.66;;;6.51;58.94
70009;BME280;59542;37.950;-122.338;2023-04-04T09:45:38;102076.03;;;6.58;58.98
70009;BME280;59542;37.950;-122.338;2023-04-04T09:48:07;102065.84;;;6.54;58.25
70009;BME280;59542;37.950;-122.338;2023-04-04T09:50:45;102071.38;;;6.43;59.15
70009;BME280;59542;37.950;-122.338;2023-04-04T09:53:18;102067.72;;;6.44;59.40
70009;BME280;59542;37.950;-122.338;2023-04-04T09:55:52;102060.00;;;6.50;58.93
70009;BME280;59542;37.950;-122.338;2023-04-04T09:58:24;102059.59;;;6.45;58.88
70009;BME280;59542;37.950;-122.338;2023-04-04T10:01:00;102056.94;;;6.45;58.32
70009;BME280;59542;37.950;-122.338;2023-04-04T10:03:27;102060.72;;;6.43;58.64
70009;BME280;59542;37.950;-122.338;2023-04-04T10:08:23;102051.47;;;6.47;58.29
70009;BME280;59542;37.950;-122.338;2023-04-04T10:10:57;102063.31;;;6.34;58.62
70009;BME280;59542;37.950;-122.338;2023-04-04T10:13:34;102066.13;;;6.33;59.30
70009;BME280;59542;37.950;-122.338;2023-04-04T10:16:02;102060.59;;;6.44;59.04
70009;BME280;59542;37.950;-122.338;2023-04-04T10:18:33;102062.41;;;6.44;58.57
70009;BME280;59542;37.950;-122.338;2023-04-04T10:21:02;102059.91;;;6.42;58.37
70009;BME280;59542;37.950;-122.338;2023-04-04T10:23:29;102062.94;;;6.47;58.51
70009;BME280;59542;37.950;-122.338;2023-04-04T10:25:57;102059.09;;;6.32;58.47
70009;BME280;59542;37.950;-122.338;2023-04-04T10:28:25;102060.97;;;6.49;57.77
70009;BME280;59542;37.950;-122.338;2023-04-04T10:33:48;102069.16;;;6.38;57.52
70009;BME280;59542;37.950;-122.338;2023-04-04T10:36:20;102059.09;;;6.32;57.72
70009;BME280;59542;37.950;-122.338;2023-04-04T10:38:54;102057.59;;;6.29;58.43
70009;BME280;59542;37.950;-122.338;2023-04-04T10:41:22;102061.69;;;6.24;58.33
70009;BME280;59542;37.950;-122.338;2023-04-04T10:43:53;102050.44;;;6.30;57.85
70009;BME280;59542;37.950;-122.338;2023-04-04T10:46:22;102055.00;;;6.38;57.70
70009;BME280;59542;37.950;-122.338;2023-04-04T10:48:57;102055.09;;;6.28;58.01
70009;BME280;59542;37.950;-122.338;2023-04-04T10:51:25;102048.47;;;6.32;57.71
70009;BME280;59542;37.950;-122.338;2023-04-04T10:53:52;102044.13;;;6.31;58.08
70009;BME280;59542;37.950;-122.338;2023-04-04T10:56:20;102045.03;;;6.22;58.11
70009;BME280;59542;37.950;-122.338;2023-04-04T10:58:48;102040.25;;;6.25;57.66
70009;BME280;59542;37.950;-122.338;2023-04-04T11:01:14;102040.66;;;6.30;57.39
70009;BME280;59542;37.950;-122.338;2023-04-04T11:04:17;102050.53;;;6.11;58.50
70009;BME280;59542;37.950;-122.338;2023-04-04T11:07:03;102042.69;;;6.19;57.81
70009;BME280;59542;37.950;-122.338;2023-04-04T11:12:25;102044.09;;;6.13;58.57
70009;BME280;59542;37.950;-122.338;2023-04-04T11:17:42;102044.38;;;6.10;58.27
70009;BME280;59542;37.950;-122.338;2023-04-04T11:20:10;102049.69;;;6.10;57.98
70009;BME280;59542;37.950;-122.338;2023-04-04T11:22:36;102057.81;;;6.08;57.58
70009;BME280;59542;37.950;-122.338;2023-04-04T11:25:38;102061.97;;;6.21;57.52
70009;BME280;59542;37.950;-122.338;2023-04-04T11:28:08;102053.47;;;6.17;57.87
70009;BME280;59542;37.950;-122.338;2023-04-04T11:30:40;102062.16;;;6.09;58.49
70009;BME280;59542;37.950;-122.338;2023-04-04T11:33:13;102058.13;;;6.05;58.25
70009;BME280;59542;37.950;-122.338;2023-04-04T11:35:50;102048.16;;;6.17;57.91
70009;BME280;59542;37.950;-122.338;2023-04-04T11:38:19;102053.34;;;6.09;58.38
70009;BME280;59542;37.950;-122.338;2023-04-04T11:40:54;102059.94;;;6.05;58.10
70009;BME280;59542;37.950;-122.338;2023-04-04T11:43:22;102065.13;;;6.06;58.53
70009;BME280;59542;37.950;-122.338;2023-04-04T11:45:50;102062.56;;;6.15;57.90
70009;BME280;59542;37.950;-122.338;2023-04-04T11:48:18;102063.56;;;6.04;58.44
70009;BME280;59542;37.950;-122.338;2023-04-04T11:50:46;102072.09;;;6.07;58.89
70009;BME280;59542;37.950;-122.338;2023-04-04T11:53:14;102072.94;;;6.08;58.51
70009;BME280;59542;37.950;-122.338;2023-04-04T11:55:43;102069.03;;;6.02;58.68
70009;BME280;59542;37.950;-122.338;2023-04-04T11:58:13;102070.72;;;6.03;58.95
70009;BME280;59542;37.950;-122.338;2023-04-04T12:00:40;102072.38;;;6.04;58.54
70009;BME280;59542;37.950;-122.338;2023-04-04T12:03:08;102073.28;;;5.95;59.15
70009;BME280;59542;37.950;-122.338;2023-04-04T12:05:40;102075.63;;;5.98;59.01
70009;BME280;59542;37.950;-122.338;2023-04-04T12:08:10;102078.16;;;5.90;59.14
70009;BME280;59542;37.950;-122.338;2023-04-04T12:10:38;102073.28;;;5.95;58.45
70009;BME280;59542;37.950;-122.338;2023-04-04T12:13:07;102066.81;;;5.88;58.58
70009;BME280;59542;37.950;-122.338;2023-04-04T12:15:36;102066.81;;;5.98;58.31
70009;BME280;59542;37.950;-122.338;2023-04-04T12:18:07;102068.38;;;5.91;58.92
70009;BME280;59542;37.950;-122.338;2023-04-04T12:20:37;102059.28;;;5.93;58.90
70009;BME280;59542;37.950;-122.338;2023-04-04T12:23:04;102059.84;;;5.87;58.76
70009;BME280;59542;37.950;-122.338;2023-04-04T12:25:30;102072.03;;;5.80;59.47
70009;BME280;59542;37.950;-122.338;2023-04-04T12:28:00;102077.06;;;5.83;58.93
70009;BME280;59542;37.950;-122.338;2023-04-04T12:30:27;102076.34;;;5.81;58.79
70009;BME280;59542;37.950;-122.338;2023-04-04T12:32:54;102078.34;;;5.69;59.40
70009;BME280;59542;37.950;-122.338;2023-04-04T12:35:20;102075.53;;;5.71;59.46
70009;BME280;59542;37.950;-122.338;2023-04-04T12:38:03;102080.56;;;5.83;59.49
70009;BME280;59542;37.950;-122.338;2023-04-04T12:40:37;102082.22;;;5.85;59.20
70009;BME280;59542;37.950;-122.338;2023-04-04T12:43:07;102086.75;;;5.65;59.37
70009;BME280;59542;37.950;-122.338;2023-04-04T12:45:38;102079.75;;;5.73;59.07
70009;BME280;59542;37.950;-122.338;2023-04-04T12:48:10;102083.56;;;5.61;59.22